Time;durP1;ratioP1;P1;durP2;ratioP2;P2;SDS_P1;SDS_P2;PMS_P1;PMS_P2;Temp;Humidity;BMP_temperature;BMP_pressure;BME280_temperature;BME280_humidity;BME280_pressure;Samples;Min_cycle;Max_cycle;Signal;HPM_P1;HPM_P2
2022/06/07 00:01:22;;;;;;;3.75;3.45;;;;;;;14.32;100.00;63482.53;5072768;28;20260;-78
2022/06/07 00:03:49;;;;;;;3.88;3.53;;;;;;;14.31;100.00;63476.38;5071386;28;20198;-78
2022/06/07 00:06:17;;;;;;;6.38;3.83;;;;;;;14.12;100.00;63459.69;5072648;28;20224;-79
2022/06/07 00:08:43;;;;;;;8.13;3.90;;;;;;;14.20;100.00;63467.50;5078582;28;20233;-78
2022/06/07 00:11:12;;;;;;;3.67;3.47;;;;;;;14.17;100.00;63464.88;5086450;28;20215;-78
2022/06/07 00:13:39;;;;;;;7.32;4.20;;;;;;;14.12;100.00;63457.13;5096781;28;20201;-79
2022/06/07 00:16:05;;;;;;;4.50;4.10;;;;;;;14.17;100.00;63461.81;5077131;28;20208;-79
2022/06/07 00:18:32;;;;;;;4.72;4.00;;;;;;;14.18;100.00;63465.94;5078358;28;20224;-79
2022/06/07 00:21:01;;;;;;;4.40;4.10;;;;;;;14.21;100.00;63466.50;5069528;28;20243;-80
2022/06/07 00:23:28;;;;;;;4.60;3.55;;;;;;;14.13;100.00;63457.66;5071676;28;20428;-77
2022/06/07 00:25:55;;;;;;;8.63;4.18;;;;;;;14.15;100.00;63462.31;5070184;28;20239;-78
2022/06/07 00:28:24;;;;;;;3.40;3.20;;;;;;;14.14;100.00;63458.69;5071215;28;20239;-79
2022/06/07 00:30:53;;;;;;;4.80;3.55;;;;;;;14.15;100.00;63462.31;5087907;28;20280;-79
2022/06/07 00:33:20;;;;;;;5.25;3.55;;;;;;;14.15;100.00;63462.81;5080485;28;20198;-79
2022/06/07 00:35:48;;;;;;;4.05;3.78;;;;;;;14.17;100.00;63459.25;5074997;28;20213;-78
2022/06/07 00:38:15;;;;;;;4.72;3.80;;;;;;;14.12;100.00;63462.25;5081179;28;20207;-78
2022/06/07 00:40:43;;;;;;;6.13;4.03;;;;;;;14.14;100.00;63456.66;5070877;28;20197;-79
2022/06/07 00:43:10;;;;;;;4.82;4.43;;;;;;;14.25;100.00;63470.13;5071703;28;20474;-79
2022/06/07 00:45:39;;;;;;;4.55;4.15;;;;;;;14.34;100.00;63482.56;5069625;28;20231;-80
2022/06/07 00:48:08;;;;;;;4.70;4.30;;;;;;;14.41;100.00;63484.72;5073461;28;20360;-80
2022/06/07 00:50:42;;;;;;;6.32;4.80;;;;;;;14.48;100.00;63494.53;5074208;28;20198;-80
2022/06/07 00:53:21;;;;;;;4.25;3.95;;;;;;;14.54;100.00;63502.81;5079946;28;20213;-80
2022/06/07 00:55:48;;;;;;;6.95;4.78;;;;;;;14.56;100.00;63504.91;5084546;28;20223;-81
2022/06/07 00:58:15;;;;;;;4.88;4.47;;;;;;;14.59;100.00;63508.00;5093950;28;20199;-79
2022/06/07 01:00:44;;;;;;;4.18;3.78;;;;;;;14.65;100.00;63514.75;5077370;28;20201;-79
2022/06/07 01:03:11;;;;;;;4.50;3.75;;;;;;;14.60;100.00;63504.44;5077567;28;20212;-80
2022/06/07 01:05:38;;;;;;;4.13;3.88;;;;;;;14.55;100.00;63504.38;5082171;28;20223;-79
2022/06/07 01:10:53;;;;;;;5.65;3.58;;;;;;;14.51;100.00;63500.22;5070234;28;20204;-78
2022/06/07 01:13:23;;;;;;;4.40;4.00;;;;;;;14.38;100.00;63486.72;5076732;28;20344;-78
2022/06/07 01:15:51;;;;;;;3.70;3.40;;;;;;;14.32;100.00;63477.41;5083071;28;20225;-79
2022/06/07 01:18:18;;;;;;;3.53;3.30;;;;;;;14.27;100.00;63475.28;5069475;28;20197;-78
2022/06/07 01:20:45;;;;;;;4.65;4.35;;;;;;;14.25;100.00;63470.13;5086254;28;20190;-79
2022/06/07 01:23:13;;;;;;;4.85;4.18;;;;;;;14.24;100.00;63472.16;5073807;28;20240;-80
2022/06/07 01:25:40;;;;;;;5.53;4.95;;;;;;;14.17;100.00;63461.81;5080713;28;20223;-79
2022/06/07 01:28:07;;;;;;;5.65;5.15;;;;;;;14.17;100.00;63459.25;5082903;28;20258;-79
2022/06/07 01:30:34;;;;;;;5.70;5.13;;;;;;;14.13;100.00;63457.66;5073817;28;20296;-79
2022/06/07 01:33:01;;;;;;;8.95;4.63;;;;;;;14.11;100.00;63453.03;5091266;28;20263;-78
2022/06/07 01:35:28;;;;;;;6.50;4.90;;;;;;;14.09;100.00;63459.16;5075078;28;20247;-79
2022/06/07 01:37:54;;;;;;;11.27;5.97;;;;;;;14.07;100.00;63449.38;5073273;28;20217;-79
2022/06/07 01:43:07;;;;;;;4.72;3.90;;;;;;;14.07;100.00;63448.88;5092397;28;20207;-78
2022/06/07 01:45:34;;;;;;;4.45;4.05;;;;;;;14.02;100.00;63444.19;5092926;28;20232;-79
2022/06/07 01:48:00;;;;;;;5.22;4.18;;;;;;;14.01;100.00;63445.72;5077004;28;20243;-79
2022/06/07 01:50:27;;;;;;;5.75;4.03;;;;;;;13.93;100.00;63437.41;5088983;28;20574;-79
2022/06/07 01:52:54;;;;;;;7.60;4.30;;;;;;;13.93;100.00;63439.47;5085217;28;20238;-79
2022/06/07 01:55:21;;;;;;;4.93;4.00;;;;;;;13.88;100.00;63435.31;5090507;28;20196;-79
2022/06/07 01:57:49;;;;;;;4.55;4.25;;;;;;;13.96;100.00;63437.47;5093584;28;20227;-81
2022/06/07 02:00:16;;;;;;;5.38;4.88;;;;;;;13.93;100.00;63434.84;5090475;28;20192;-80
2022/06/07 02:02:43;;;;;;;5.03;4.25;;;;;;;13.90;100.00;63434.81;5078703;28;20233;-80
2022/06/07 02:05:10;;;;;;;5.50;4.57;;;;;;;13.91;100.00;63432.78;5087471;28;20201;-79
2022/06/07 02:07:37;;;;;;;4.63;4.32;;;;;;;13.93;100.00;63439.47;5074436;28;20221;-80
2022/06/07 02:10:05;;;;;;;4.55;4.15;;;;;;;13.97;100.00;63443.59;5082808;28;20267;-79
2022/06/07 02:12:32;;;;;;;4.22;3.92;;;;;;;13.93;100.00;63437.41;5073638;28;20240;-79
2022/06/07 02:15:01;;;;;;;4.82;4.28;;;;;;;13.95;100.00;63439.50;5074465;28;20192;-80
2022/06/07 02:17:28;;;;;;;4.32;4.03;;;;;;;13.97;100.00;63443.59;5081981;28;20259;-80
2022/06/07 02:19:55;;;;;;;3.65;3.45;;;;;;;13.82;100.00;63423.94;5085334;28;20201;-80
2022/06/07 02:22:21;;;;;;;5.75;4.68;;;;;;;13.64;100.00;63405.28;5073488;28;20222;-79
2022/06/07 02:24:48;;;;;;;5.65;4.22;;;;;;;13.71;100.00;63412.03;5072332;28;20223;-79
2022/06/07 02:27:19;;;;;;;5.43;3.40;;;;;;;13.82;100.00;63426.00;5082569;28;20264;-80
2022/06/07 02:29:48;;;;;;;3.55;3.35;;;;;;;13.72;100.00;63415.59;5077819;28;20271;-80
2022/06/07 02:32:21;;;;;;;6.28;5.40;;;;;;;13.83;100.00;63427.03;5073915;28;20213;-80
2022/06/07 02:34:52;;;;;;;5.22;4.88;;;;;;;13.91;100.00;63438.41;5072705;28;20205;-80
2022/06/07 02:37:19;;;;;;;6.75;6.05;;;;;;;13.96;100.00;63440.00;5073966;28;20280;-80
2022/06/07 02:39:46;;;;;;;5.65;5.20;;;;;;;13.94;100.00;63441.03;5073308;28;20264;-80
2022/06/07 02:42:16;;;;;;;9.38;5.63;;;;;;;14.07;100.00;63448.88;5072357;28;20240;-81
2022/06/07 02:44:43;;;;;;;7.78;5.40;;;;;;;14.10;100.00;63452.50;5082036;28;20223;-81
2022/06/07 02:47:09;;;;;;;6.05;5.53;;;;;;;14.17;100.00;63461.81;5077802;28;20248;-80
2022/06/07 02:49:38;;;;;;;5.30;4.80;;;;;;;14.18;100.00;63463.38;5083792;28;20216;-80
2022/06/07 02:52:05;;;;;;;5.75;5.25;;;;;;;14.21;100.00;63463.94;5077913;28;20216;-80
2022/06/07 02:54:32;;;;;;;5.05;4.65;;;;;;;14.19;100.00;63461.84;5077331;28;20200;-79
2022/06/07 02:56:59;;;;;;;5.93;4.95;;;;;;;14.21;100.00;63463.94;5076331;28;20213;-79
2022/06/07 02:59:26;;;;;;;5.18;4.75;;;;;;;14.16;100.00;63466.41;5086203;28;20419;-80
2022/06/07 03:01:53;;;;;;;5.35;4.85;;;;;;;14.25;100.00;63470.13;5072902;28;20213;-80
2022/06/07 03:04:20;;;;;;;5.03;4.50;;;;;;;14.28;100.00;63475.81;5074096;28;20204;-80
2022/06/07 03:06:48;;;;;;;5.50;5.00;;;;;;;14.27;100.00;63467.59;5073616;28;20228;-80
2022/06/07 03:09:15;;;;;;;5.85;5.32;;;;;;;14.35;100.00;63481.03;5082052;28;20220;-80
2022/06/07 03:11:42;;;;;;;9.85;5.82;;;;;;;14.48;100.00;63496.59;5086098;28;20273;-79
2022/06/07 03:14:10;;;;;;;5.90;5.40;;;;;;;14.58;100.00;63510.03;5081473;28;20196;-79
2022/06/07 03:16:37;;;;;;;7.03;6.05;;;;;;;14.64;100.00;63505.50;5093006;28;20228;-80
2022/06/07 03:19:04;;;;;;;10.75;7.05;;;;;;;14.71;100.00;63517.91;5080239;28;20193;-79
2022/06/07 03:21:31;;;;;;;8.90;6.32;;;;;;;14.82;100.00;63529.34;5093201;28;20242;-79
2022/06/07 03:24:00;;;;;;;7.70;6.30;;;;;;;14.88;100.00;63536.09;5082332;28;20198;-79
2022/06/07 03:26:27;;;;;;;7.55;6.68;;;;;;;14.93;100.00;63541.28;5073772;28;20217;-80
2022/06/07 03:28:54;;;;;;;31.55;24.58;;;;;;;15.00;100.00;63553.16;5078708;28;20204;-80
2022/06/07 03:31:21;;;;;;;10.50;8.18;;;;;;;15.08;100.00;63556.38;5071793;28;20227;-79
2022/06/07 03:33:48;;;;;;;20.80;15.60;;;;;;;15.18;100.00;63568.78;5071160;28;20212;-80
2022/06/07 03:36:17;;;;;;;6.38;4.90;;;;;;;15.25;100.00;63576.59;5070170;28;20213;-80
2022/06/07 03:38:44;;;;;;;5.60;5.13;;;;;;;15.30;100.00;63581.78;5072295;28;20205;-80
2022/06/07 03:41:17;;;;;;;4.82;4.50;;;;;;;15.26;100.00;63575.06;5072895;28;20231;-80
2022/06/07 03:43:44;;;;;;;5.30;4.80;;;;;;;15.35;100.00;63584.41;5077022;28;20186;-79
2022/06/07 03:46:13;;;;;;;6.30;5.70;;;;;;;15.42;100.00;63596.31;5069998;28;20240;-79
2022/06/07 03:48:40;;;;;;;9.40;7.00;;;;;;;15.20;100.00;63571.41;5074514;28;20220;-79
2022/06/07 03:51:08;;;;;;;9.32;8.20;;;;;;;15.21;100.00;63564.22;5088044;28;20234;-80
2022/06/07 03:53:35;;;;;;;8.02;7.22;;;;;;;15.33;100.00;63582.34;5094252;28;20201;-80
2022/06/07 03:56:02;;;;;;;8.50;7.70;;;;;;;15.11;100.00;63558.94;5092149;28;20216;-80
2022/06/07 03:58:30;;;;;;;8.85;7.25;;;;;;;15.18;100.00;63564.19;5078628;28;20267;-81
2022/06/07 04:00:59;;;;;;;9.15;7.40;;;;;;;15.27;100.00;63570.44;5079051;28;20292;-81
2022/06/07 04:03:26;;;;;;;7.45;6.75;;;;;;;15.36;100.00;63587.50;5096025;28;20197;-81
2022/06/07 04:05:53;;;;;;;6.60;5.93;;;;;;;15.39;100.00;63591.16;5096751;28;20590;-80
2022/06/07 04:08:22;;;;;;;6.70;5.97;;;;;;;15.46;100.00;63597.91;5078696;28;20201;-80
2022/06/07 04:10:51;;;;;;;7.68;6.45;;;;;;;15.52;100.00;63601.56;5097019;28;20224;-79
2022/06/07 04:13:19;;;;;;;7.20;5.63;;;;;;;15.59;100.00;63606.28;5086584;28;20221;-82
2022/06/07 04:15:47;;;;;;;7.03;5.85;;;;;;;15.72;100.00;63620.31;5087144;28;20215;-81
2022/06/07 04:18:14;;;;;;;6.78;5.85;;;;;;;15.88;100.00;63639.53;5076877;28;20201;-80
2022/06/07 04:20:41;;;;;;;5.80;5.30;;;;;;;16.00;100.00;63654.06;5077066;28;20197;-80
2022/06/07 04:23:10;;;;;;;6.03;5.43;;;;;;;16.13;100.00;63668.09;5077047;28;20201;-82
2022/06/07 04:25:39;;;;;;;6.50;5.72;;;;;;;16.12;100.00;63659.34;5076910;28;20197;-80
2022/06/07 04:28:06;;;;;;;7.78;5.63;;;;;;;16.27;100.00;63682.16;5080818;28;20536;-81
2022/06/07 04:30:34;;;;;;;9.00;6.25;;;;;;;16.33;100.00;63685.81;5076993;28;20259;-81
2022/06/07 04:33:02;;;;;;;10.23;8.07;;;;;;;16.13;100.00;63665.53;5087983;28;20200;-82
2022/06/07 04:35:29;;;;;;;9.00;6.93;;;;;;;15.98;100.00;63652.50;5092060;28;20221;-82
2022/06/07 04:37:56;;;;;;;10.00;7.20;;;;;;;15.96;100.00;63644.78;5076979;28;20290;-81
2022/06/07 04:40:23;;;;;;;12.95;8.32;;;;;;;15.79;100.00;63624.53;5088918;28;20185;-80
2022/06/07 04:42:50;;;;;;;9.80;7.80;;;;;;;15.93;100.00;63651.91;5097239;28;20228;-80
2022/06/07 04:45:17;;;;;;;9.30;7.80;;;;;;;16.18;100.00;63670.22;5100016;28;20181;-81
2022/06/07 04:47:45;;;;;;;12.75;8.13;;;;;;;16.34;100.00;63692.00;5099179;28;20254;-80
2022/06/07 04:50:16;;;;;;;8.63;7.53;;;;;;;16.47;100.00;63697.31;5087663;28;20231;-81
2022/06/07 04:52:44;;;;;;;19.95;8.98;;;;;;;16.42;100.00;63694.66;5077427;28;20243;-82
2022/06/07 04:55:11;;;;;;;9.52;8.20;;;;;;;16.54;100.00;63707.69;5084568;28;20195;-82
2022/06/07 04:57:38;;;;;;;10.38;7.90;;;;;;;16.31;100.00;63678.59;5096930;28;20220;-83
2022/06/07 05:00:08;;;;;;;12.45;8.25;;;;;;;16.09;100.00;63661.38;5085828;28;20231;-83
2022/06/07 05:02:36;;;;;;;11.40;7.65;;;;;;;16.03;100.00;63652.56;5085579;28;20230;-83
2022/06/07 05:05:04;;;;;;;9.10;8.25;;;;;;;16.04;100.00;63658.22;5095081;28;20497;-82
2022/06/07 05:07:32;;;;;;;15.38;8.25;;;;;;;16.04;100.00;63655.66;5082025;28;20220;-83
2022/06/07 05:09:59;;;;;;;10.70;9.60;;;;;;;15.85;100.00;63636.41;5083863;28;20278;-83
2022/06/07 05:12:26;;;;;;;10.77;8.70;;;;;;;15.91;100.00;63640.06;5091004;28;20295;-83
2022/06/07 05:14:53;;;;;;;12.02;9.85;;;;;;;15.89;100.00;63640.56;5081773;28;20221;-83
2022/06/07 05:17:20;;;;;;;17.08;11.32;;;;;;;15.99;100.00;63648.41;5094044;28;20220;-82
2022/06/07 05:19:47;;;;;;;10.98;9.88;;;;;;;15.98;100.00;63647.34;5076873;28;20194;-83
2022/06/07 05:22:14;;;;;;;11.82;9.57;;;;;;;16.30;100.00;63680.13;5077090;28;20224;-82
2022/06/07 05:24:42;;;;;;;14.77;9.20;;;;;;;16.55;100.00;63710.78;5093451;28;20197;-81
2022/06/07 05:27:12;;;;;;;12.15;8.70;;;;;;;16.85;100.00;63739.94;5091427;28;20214;-82
2022/06/07 05:29:47;;;;;;;10.75;8.88;;;;;;;16.88;100.00;63739.97;5086990;28;20212;-84
2022/06/07 05:32:14;;;;;;;10.73;8.90;;;;;;;16.95;100.00;63749.81;5075306;28;20247;-83
2022/06/07 05:34:41;;;;;;;11.20;8.75;;;;;;;16.55;100.00;63713.84;5084562;28;20482;-83
2022/06/07 05:37:08;;;;;;;14.30;9.80;;;;;;;16.46;100.00;63701.94;5074630;28;20220;-80
2022/06/07 05:39:35;;;;;;;11.65;9.65;;;;;;;16.77;100.00;63731.63;5085163;28;20259;-81
2022/06/07 05:42:03;;;;;;;11.40;10.25;;;;;;;16.87;100.00;63741.50;5075891;28;20220;-82
2022/06/07 05:44:30;;;;;;;12.52;9.38;;;;;;;17.02;100.00;63754.53;5072434;28;20496;-82
2022/06/07 05:46:59;;;;;;;12.90;10.02;;;;;;;17.02;100.00;63762.25;5070544;28;20256;-83
2022/06/07 05:49:26;;;;;;;12.50;9.55;;;;;;;17.21;100.00;63777.41;5074798;28;20202;-82
2022/06/07 05:51:53;;;;;;;11.88;9.55;;;;;;;17.54;100.00;63811.25;5089249;28;20239;-83
2022/06/07 05:54:20;;;;;;;11.93;10.63;;;;;;;17.49;100.00;63800.91;5085007;28;20523;-81
2022/06/07 05:56:47;;;;;;;12.15;9.63;;;;;;;17.74;100.00;63836.72;5084263;28;20216;-83
2022/06/07 05:59:15;;;;;;;10.50;9.40;;;;;;;17.84;100.00;63839.41;5081692;28;20197;-82
2022/06/07 06:01:42;;;;;;;8.63;7.88;;;;;;;17.92;100.00;63848.25;5068771;28;20388;-83
2022/06/07 06:04:10;;;;;;;11.88;9.05;;;;;;;17.70;100.00;63824.81;5072877;28;20193;-84
2022/06/07 06:06:37;;;;;;;11.77;9.05;;;;;;;17.61;100.00;63818.03;5071594;28;20219;-83
2022/06/07 06:11:50;;;;;;;9.27;8.18;;;;;;;17.80;100.00;63837.81;5091231;28;20291;-84
2022/06/07 06:14:19;;;;;;;10.15;7.38;;;;;;;17.91;100.00;63851.84;5076819;28;20181;-84
2022/06/07 06:16:46;;;;;;;11.00;8.95;;;;;;;18.08;100.00;63864.94;5077778;28;20222;-84
2022/06/07 06:19:13;;;;;;;12.23;7.93;;;;;;;18.25;100.00;63884.69;5084033;28;20248;-83
2022/06/07 06:21:42;;;;;;;11.13;8.13;;;;;;;18.13;100.00;63869.63;5078324;28;20222;-83
2022/06/07 06:24:11;;;;;;;7.97;7.13;;;;;;;18.45;100.00;63910.69;5078565;28;20192;-83
2022/06/07 06:26:39;;;;;;;9.13;7.85;;;;;;;18.34;100.00;63899.75;5067990;28;20255;-85
2022/06/07 06:29:08;;;;;;;9.60;8.18;;;;;;;18.71;100.00;63927.47;5076678;28;20201;-83
2022/06/07 06:31:36;;;;;;;8.63;7.63;;;;;;;19.16;100.00;63982.13;5073462;28;20228;-83
2022/06/07 06:34:04;;;;;;;8.75;7.88;;;;;;;19.54;100.00;64021.78;5068925;28;20230;-84
2022/06/07 06:36:31;;;;;;;7.82;7.13;;;;;;;19.53;100.00;64022.81;5067905;28;20251;-84
2022/06/07 06:38:59;;;;;;;7.65;6.95;;;;;;;19.41;100.00;64002.53;5067388;28;20242;-84
2022/06/07 06:41:28;;;;;;;9.02;8.13;;;;;;;19.64;100.00;64029.09;5078806;28;20220;-84
2022/06/07 06:43:56;;;;;;;8.95;7.90;;;;;;;20.12;100.00;64076.09;5065556;28;20631;-83
2022/06/07 06:46:26;;;;;;;13.45;8.32;;;;;;;20.30;100.00;64095.41;5067562;28;20237;-83
2022/06/07 06:48:54;;;;;;;12.02;7.25;;;;;;;20.51;100.00;64119.38;5065956;28;20268;-83
2022/06/07 06:51:24;;;;;;;9.38;8.50;;;;;;;20.43;100.00;64111.03;5067428;28;20533;-85
2022/06/07 06:53:52;;;;;;;10.73;9.50;;;;;;;20.08;100.00;64077.06;5069698;28;20211;-84
2022/06/07 06:56:21;;;;;;;9.98;8.95;;;;;;;19.97;100.00;64060.41;5070909;28;20234;-84
2022/06/07 06:58:49;;;;;;;11.85;8.93;;;;;;;19.84;100.00;64054.63;5068070;28;20201;-83
2022/06/07 07:01:18;;;;;;;9.80;8.82;;;;;;;19.67;100.00;64031.72;5085189;28;20216;-83
2022/06/07 07:03:45;;;;;;;9.27;8.10;;;;;;;19.43;100.00;64007.72;5091526;28;20195;-83
2022/06/07 07:06:17;;;;;;;10.02;8.80;;;;;;;19.50;100.00;64015.03;5075906;28;20224;-82
2022/06/07 07:08:46;;;;;;;9.30;8.13;;;;;;;19.24;100.00;63990.47;5088124;28;20185;-83
2022/06/07 07:11:18;;;;;;;14.10;9.90;;;;;;;19.24;100.00;63987.88;5073946;28;20308;-82
2022/06/07 07:13:46;;;;;;;14.48;9.88;;;;;;;19.39;100.00;64003.56;5078990;28;20185;-82
2022/06/07 07:16:17;;;;;;;10.93;9.82;;;;;;;19.35;100.00;64001.44;5085351;28;20246;-83
2022/06/07 07:18:44;;;;;;;14.55;9.25;;;;;;;19.62;100.00;64029.63;5086382;28;20230;-79
2022/06/07 07:21:15;;;;;;;12.00;9.45;;;;;;;19.63;100.00;64024.97;5078264;28;20261;-81
2022/06/07 07:23:42;;;;;;;10.48;9.00;;;;;;;19.71;100.00;64035.91;5076139;28;20223;-80
2022/06/07 07:26:12;;;;;;;9.38;8.48;;;;;;;19.95;100.00;64064.03;5086870;28;20532;-81
2022/06/07 07:28:40;;;;;;;9.43;8.52;;;;;;;20.16;100.00;64075.09;5095029;28;20192;-79
2022/06/07 07:31:11;;;;;;;9.60;8.63;;;;;;;20.17;100.00;64083.91;5092266;28;20224;-80
2022/06/07 07:33:39;;;;;;;13.77;8.88;;;;;;;20.25;100.00;64092.25;5084264;28;20234;-80
2022/06/07 07:36:06;;;;;;;10.60;9.50;;;;;;;20.40;100.00;64102.72;5097951;28;20212;-80
2022/06/07 07:38:35;;;;;;;9.50;8.50;;;;;;;20.27;100.00;64097.44;5097628;28;20203;-79
2022/06/07 07:41:02;;;;;;;11.20;9.32;;;;;;;20.43;100.00;64116.22;5094177;28;20222;-80
2022/06/07 07:43:29;;;;;;;10.02;8.38;;;;;;;20.41;100.00;64112.06;5091481;28;20196;-80
2022/06/07 07:45:57;;;;;;;12.55;9.10;;;;;;;20.49;100.00;64117.81;5094188;28;20235;-79
2022/06/07 07:48:25;;;;;;;8.68;7.88;;;;;;;20.48;100.00;64116.25;5102038;28;20212;-80
2022/06/07 07:50:52;;;;;;;11.98;8.38;;;;;;;20.71;100.00;64137.66;5103241;28;20290;-80
2022/06/07 07:53:20;;;;;;;11.60;8.85;;;;;;;20.96;100.00;64163.25;5096141;28;20578;-79
2022/06/07 07:55:50;;;;;;;8.05;7.20;;;;;;;20.94;100.00;64164.28;5104381;28;20503;-81
2022/06/07 07:58:19;;;;;;;7.32;5.82;;;;;;;21.04;100.00;64176.78;5092665;28;20192;-80
2022/06/07 08:00:48;;;;;;;7.40;6.22;;;;;;;21.26;100.00;64194.59;5091608;28;20191;-81
2022/06/07 08:03:16;;;;;;;7.80;6.72;;;;;;;21.39;100.00;64210.75;5091180;28;20214;-80
2022/06/07 08:05:43;;;;;;;7.47;6.80;;;;;;;21.25;100.00;64198.72;5089490;28;20542;-80
2022/06/07 08:08:12;;;;;;;5.63;5.18;;;;;;;21.35;100.00;64203.97;5087341;28;20203;-79
2022/06/07 08:10:40;;;;;;;5.63;4.55;;;;;;;21.49;96.98;64226.91;5087749;28;20273;-80
2022/06/07 08:13:08;;;;;;;8.02;5.90;;;;;;;21.47;97.95;64219.63;5097428;28;20191;-80
2022/06/07 08:15:36;;;;;;;6.13;5.72;;;;;;;21.34;100.00;64208.66;5095685;28;20255;-81
2022/06/07 08:18:04;;;;;;;7.70;4.95;;;;;;;21.51;100.00;64225.88;5092689;28;20203;-79
2022/06/07 08:20:36;;;;;;;9.13;5.53;;;;;;;21.71;100.00;64242.13;5084151;28;20215;-80
2022/06/07 08:23:03;;;;;;;5.22;4.38;;;;;;;21.84;92.08;64255.19;5094366;28;20219;-80
2022/06/07 08:25:31;;;;;;;4.47;4.07;;;;;;;21.85;91.51;64264.00;5083539;28;20264;-80
2022/06/07 08:27:58;;;;;;;4.00;3.80;;;;;;;21.75;88.60;64251.50;5070140;28;20197;-80
2022/06/07 08:30:26;;;;;;;6.50;4.82;;;;;;;21.84;87.50;64262.44;5085666;28;20196;-79
2022/06/07 08:32:53;;;;;;;5.18;4.68;;;;;;;21.97;88.79;64270.84;5083029;28;20219;-79
2022/06/07 08:38:06;;;;;;;3.70;3.50;;;;;;;21.94;83.23;64270.31;5078076;28;20397;-79
2022/06/07 08:40:35;;;;;;;3.90;3.60;;;;;;;22.06;82.20;64280.25;5086294;28;20554;-80
2022/06/07 08:43:07;;;;;;;3.72;3.40;;;;;;;22.15;82.85;64292.78;5067076;28;20251;-78
2022/06/07 08:45:39;;;;;;;9.15;4.68;;;;;;;22.31;83.29;64309.50;5083406;28;20212;-79
2022/06/07 08:48:11;;;;;;;5.20;4.70;;;;;;;22.54;89.05;64336.16;5087153;28;20204;-79
2022/06/07 08:50:42;;;;;;;4.22;3.95;;;;;;;22.83;82.83;64363.38;5072005;28;20201;-79
2022/06/07 08:53:16;;;;;;;3.92;3.70;;;;;;;22.73;79.44;64350.31;5077736;28;20196;-80
2022/06/07 08:55:46;;;;;;;4.60;3.80;;;;;;;22.93;73.69;64379.53;5080447;28;20188;-79
2022/06/07 08:58:17;;;;;;;3.33;3.10;;;;;;;22.94;74.87;64372.28;5087175;28;20185;-79
2022/06/07 09:00:49;;;;;;;4.47;3.50;;;;;;;23.08;74.33;64388.97;5078594;28;20205;-80
2022/06/07 09:03:44;;;;;;;2.53;2.38;;;;;;;23.14;57.83;64395.25;5086564;28;20237;-78
2022/06/07 09:06:19;;;;;;;1.85;1.75;;;;;;;23.09;47.11;64387.94;5085516;28;20223;-80
2022/06/07 09:08:49;;;;;;;3.55;2.78;;;;;;;22.97;53.10;64378.00;5087167;28;20255;-81
2022/06/07 09:14:07;;;;;;;2.80;2.63;;;;;;;23.21;55.84;64402.59;5069565;28;20670;-80
2022/06/07 09:16:41;;;;;;;3.10;3.00;;;;;;;23.29;58.19;64406.31;5070920;28;20279;-80
2022/06/07 09:19:12;;;;;;;4.15;3.80;;;;;;;23.18;57.79;64402.03;5071559;28;20200;-81
2022/06/07 09:21:42;;;;;;;3.88;3.67;;;;;;;23.20;52.36;64399.47;5074089;28;20236;-78
2022/06/07 09:24:15;;;;;;;3.58;3.30;;;;;;;23.21;57.17;64402.59;5068109;28;20235;-79
2022/06/07 09:26:42;;;;;;;4.05;3.85;;;;;;;23.26;58.66;64407.81;5065851;28;20282;-78
2022/06/07 09:29:15;;;;;;;3.63;3.42;;;;;;;23.57;59.79;64438.19;5072284;28;20263;-79
2022/06/07 09:31:46;;;;;;;3.28;3.15;;;;;;;23.59;55.82;64437.16;5085591;28;20237;-79
2022/06/07 09:34:20;;;;;;;4.75;4.40;;;;;;;23.83;62.07;64464.88;5071938;28;20207;-79
2022/06/07 09:36:54;;;;;;;4.40;4.20;;;;;;;23.88;52.31;64475.31;5065263;28;20209;-79
2022/06/07 09:39:28;;;;;;;4.32;4.13;;;;;;;23.74;53.01;64458.59;5069689;28;20489;-78
2022/06/07 09:42:02;;;;;;;4.25;4.05;;;;;;;23.92;57.18;64474.28;5068203;28;20276;-79
2022/06/07 09:44:33;;;;;;;4.05;3.85;;;;;;;24.13;57.76;64504.09;5086601;28;20488;-79
2022/06/07 09:47:03;;;;;;;5.03;4.60;;;;;;;24.21;57.29;64504.13;5071144;28;20223;-80
2022/06/07 09:49:39;;;;;;;4.32;4.03;;;;;;;24.05;49.39;64487.38;5071506;28;20216;-81
2022/06/07 09:52:12;;;;;;;4.20;4.00;;;;;;;24.11;52.23;64493.69;5072361;28;20259;-80
2022/06/07 09:54:42;;;;;;;4.97;4.47;;;;;;;24.14;51.79;64497.34;5065688;28;20243;-80
2022/06/07 09:57:23;;;;;;;4.15;3.85;;;;;;;24.17;52.13;64502.56;5068739;28;20244;-81
2022/06/07 10:00:04;;;;;;;4.32;4.00;;;;;;;24.02;51.49;64485.28;5083389;28;20192;-78
2022/06/07 10:03:12;;;;;;;4.63;4.32;;;;;;;23.90;55.50;64477.91;5076267;28;20224;-79
2022/06/07 10:05:44;;;;;;;4.95;4.35;;;;;;;24.23;64.67;64506.75;5070936;28;20237;-80
2022/06/07 10:08:26;;;;;;;4.68;4.40;;;;;;;24.51;55.69;64536.06;5070212;28;20200;-78
2022/06/07 10:10:58;;;;;;;4.35;4.15;;;;;;;24.56;56.60;64541.28;5065573;28;20238;-79
2022/06/07 10:13:42;;;;;;;4.70;4.40;;;;;;;24.78;54.95;64564.34;5066000;28;20192;-79
2022/06/07 10:16:16;;;;;;;4.10;3.72;;;;;;;24.80;53.54;64571.13;5069907;28;20247;-79
2022/06/07 10:19:02;;;;;;;4.35;4.00;;;;;;;24.48;50.54;64537.59;5072088;28;20227;-83
2022/06/07 10:21:56;;;;;;;4.35;4.00;;;;;;;24.41;52.56;64523.00;5072457;28;20220;-84
2022/06/07 10:24:35;;;;;;;4.53;4.22;;;;;;;24.53;57.10;64542.84;5070935;28;20213;-81
2022/06/07 10:27:12;;;;;;;4.00;3.58;;;;;;;24.56;50.65;64538.16;5070347;28;20234;-82
2022/06/07 10:30:04;;;;;;;3.85;3.60;;;;;;;24.56;53.18;64543.91;5081153;28;20216;-82
2022/06/07 10:32:40;;;;;;;4.40;4.15;;;;;;;24.89;50.65;64575.34;5071653;28;20247;-82
2022/06/07 10:35:22;;;;;;;4.72;4.32;;;;;;;24.47;44.64;64537.06;5067294;28;20214;-83
2022/06/07 10:38:06;;;;;;;4.45;4.15;;;;;;;24.58;49.72;64545.47;5066243;28;20201;-83
2022/06/07 10:40:39;;;;;;;5.60;3.97;;;;;;;25.13;49.99;64600.47;5066829;28;20221;-81
2022/06/07 10:43:17;;;;;;;4.43;4.10;;;;;;;25.52;48.90;64641.38;5072279;28;20235;-82
2022/06/07 10:45:46;;;;;;;3.70;3.50;;;;;;;25.79;49.10;64672.28;5067893;28;20226;-82
2022/06/07 10:48:19;;;;;;;3.97;3.60;;;;;;;26.12;47.93;64706.88;5069256;28;20501;-80
2022/06/07 10:50:53;;;;;;;3.92;3.72;;;;;;;26.41;49.98;64734.16;5077941;28;20218;-80
2022/06/07 10:53:25;;;;;;;4.20;3.97;;;;;;;26.50;47.77;64745.66;5090260;28;20215;-79
2022/06/07 10:55:59;;;;;;;4.25;3.95;;;;;;;26.49;46.95;64739.91;5087636;28;20481;-80
2022/06/07 10:58:31;;;;;;;3.42;3.33;;;;;;;26.92;43.34;64785.03;5088374;28;20199;-80
2022/06/07 11:01:03;;;;;;;4.15;3.85;;;;;;;27.27;43.86;64829.06;5071744;28;20217;-80
2022/06/07 11:03:45;;;;;;;3.63;3.40;;;;;;;26.51;47.21;64746.72;5068809;28;20235;-81
2022/06/07 11:09:21;;;;;;;3.53;3.35;;;;;;;26.83;48.52;64775.06;5088446;28;20218;-80
2022/06/07 11:11:50;;;;;;;4.53;3.88;;;;;;;26.85;46.84;64782.91;5090102;28;20231;-80
2022/06/07 11:14:31;;;;;;;4.00;3.42;;;;;;;26.75;44.33;64772.44;5089480;28;20241;-81
2022/06/07 11:17:07;;;;;;;3.67;3.47;;;;;;;26.84;43.72;64784.47;5089402;28;20237;-80
2022/06/07 11:19:34;;;;;;;4.32;4.00;;;;;;;27.00;43.81;64798.66;5072824;28;20426;-80
2022/06/07 11:22:06;;;;;;;4.13;3.83;;;;;;;26.58;41.81;64751.97;5069365;28;20220;-81
2022/06/07 11:24:35;;;;;;;4.53;3.60;;;;;;;25.86;43.13;64676.47;5069300;28;20199;-81
2022/06/07 11:27:18;;;;;;;4.13;3.80;;;;;;;25.86;44.88;64679.09;5070610;28;20239;-81
2022/06/07 11:29:46;;;;;;;4.22;4.03;;;;;;;25.99;45.27;64695.84;5088971;28;20191;-81
2022/06/07 11:32:39;;;;;;;3.22;3.00;;;;;;;26.18;43.89;64712.63;5088710;28;20296;-81
2022/06/07 11:35:43;;;;;;;3.90;3.70;;;;;;;26.22;47.05;64709.00;5089137;28;20257;-81
2022/06/07 11:38:25;;;;;;;3.78;3.55;;;;;;;26.47;48.31;64739.91;5070658;28;20202;-81
2022/06/07 11:41:36;;;;;;;3.42;3.03;;;;;;;26.42;43.99;64734.69;5069821;28;20239;-79
2022/06/07 11:43:58;;;;;;;4.45;3.30;;;;;;;25.82;46.15;64675.41;5070981;28;20215;-80
2022/06/07 11:46:38;;;;;;;3.40;3.20;;;;;;;25.83;47.61;64673.34;5070390;28;20231;-80
2022/06/07 11:49:31;;;;;;;3.65;3.47;;;;;;;26.17;47.07;64711.59;5071057;28;20200;-80
2022/06/07 11:52:01;;;;;;;4.10;3.80;;;;;;;26.54;45.38;64750.38;5089376;28;20239;-80
2022/06/07 11:54:33;;;;;;;5.22;3.53;;;;;;;26.57;42.67;64750.41;5089279;28;20200;-79
2022/06/07 11:57:03;;;;;;;3.50;3.30;;;;;;;26.54;43.55;64753.00;5089391;28;20432;-81